CPH weather

Copenhagen Kastrup Airport
Copenhagen, Capital Region, Denmark

Public forecast

Using degrees Celsius for public forecast. Weather courtesy of forecast.io.

METAR (pilot weather report)

Retrieved 2017/05/28 23:20 UTC (32 minutes ago):

EKCH 282320Z 26010KT 9999 SCT013 BKN015 16/14 Q1013 BECMG BKN012

TAF (pilot weather forecast)

Forecast is more than 6 hours old.

Retrieved 2017/05/28 12:00 UTC (12 hours ago):

TAF EKCH 281059Z 2812/2912 24012KT CAVOK BECMG 2822/2824 30010KT 9999 BKN010 TEMPO 2900/2909 BKN006 BECMG 2909/2911 BKN025